Time;durP1;ratioP1;P1;durP2;ratioP2;P2;SDS_P1;SDS_P2;PMS_P1;PMS_P2;Temp;Humidity;BMP_temperature;BMP_pressure;BME280_temperature;BME280_humidity;BME280_pressure;Samples;Min_cycle;Max_cycle;Signal;HPM_P1;HPM_P2
2023/07/12 00:00:52;;;;;;;10.50;5.28;;;25.40;53.90;;;;;;5077023;28;20063;-42
2023/07/12 00:03:18;;;;;;;9.82;5.20;;;25.30;54.00;;;;;;5071501;28;20113;-42
2023/07/12 00:05:45;;;;;;;10.05;4.82;;;25.30;53.10;;;;;;5071533;28;20031;-43
2023/07/12 00:08:17;;;;;;;8.65;4.72;;;25.30;53.20;;;;;;5071509;28;20028;-43
2023/07/12 00:10:42;;;;;;;10.13;5.10;;;25.30;54.40;;;;;;5071522;28;20376;-42
2023/07/12 00:13:09;;;;;;;8.65;4.93;;;25.30;52.90;;;;;;5071325;28;20033;-42
2023/07/12 00:15:36;;;;;;;12.27;4.85;;;25.30;52.90;;;;;;5071409;28;20016;-44
2023/07/12 00:18:02;;;;;;;8.57;4.70;;;25.30;53.60;;;;;;5071425;28;20415;-43
2023/07/12 00:20:30;;;;;;;7.72;4.80;;;25.30;54.90;;;;;;5071397;28;20025;-42
2023/07/12 00:22:56;;;;;;;8.10;4.47;;;25.30;53.80;;;;;;5071127;28;20043;-43
2023/07/12 00:25:25;;;;;;;6.85;4.10;;;25.30;52.80;;;;;;5070076;28;20037;-42
2023/07/12 00:27:51;;;;;;;9.75;4.60;;;25.30;52.80;;;;;;5071414;28;20037;-42
2023/07/12 00:30:22;;;;;;;9.20;4.80;;;25.30;54.00;;;;;;5070100;28;20029;-42
2023/07/12 00:32:50;;;;;;;8.52;4.68;;;25.30;52.80;;;;;;5070035;28;20064;-42
2023/07/12 00:35:22;;;;;;;7.57;4.50;;;25.30;52.70;;;;;;5069901;28;20058;-42
2023/07/12 00:37:52;;;;;;;9.38;4.35;;;25.30;52.70;;;;;;5070015;28;20029;-43
2023/07/12 00:40:22;;;;;;;11.80;4.57;;;25.30;53.70;;;;;;5071339;28;20070;-43
2023/07/12 00:42:55;;;;;;;9.15;4.40;;;25.30;54.20;;;;;;5071201;28;20082;-42
2023/07/12 00:45:22;;;;;;;10.30;4.18;;;25.30;54.20;;;;;;5071255;28;20060;-42
2023/07/12 00:47:49;;;;;;;11.70;4.00;;;25.30;54.30;;;;;;5071195;28;20488;-43
2023/07/12 00:50:21;;;;;;;8.18;4.43;;;25.30;53.60;;;;;;5071192;28;20403;-42
2023/07/12 00:52:47;;;;;;;7.93;4.25;;;25.30;53.80;;;;;;5071155;28;20024;-43
2023/07/12 00:56:10;;;;;;;8.23;4.15;;;25.30;53.80;;;;;;5070862;28;20081;-42
2023/07/12 00:58:44;;;;;;;7.43;4.43;;;25.30;52.70;;;;;;5051968;28;20114;-42
2023/07/12 01:01:12;;;;;;;6.70;4.20;;;25.30;54.00;;;;;;5052122;28;20050;-42
2023/07/12 01:03:43;;;;;;;7.82;4.03;;;25.30;52.80;;;;;;5068401;28;20160;-43
2023/07/12 01:06:12;;;;;;;6.20;4.03;;;25.20;53.60;;;;;;5051726;28;20074;-42
2023/07/12 01:08:42;;;;;;;8.20;4.28;;;25.30;54.10;;;;;;5068663;28;20045;-42
2023/07/12 01:11:11;;;;;;;9.30;4.47;;;25.20;54.30;;;;;;5068514;28;20036;-43
2023/07/12 01:13:42;;;;;;;10.02;4.53;;;25.20;53.90;;;;;;5068221;28;20032;-43
2023/07/12 01:16:10;;;;;;;8.65;4.43;;;25.20;52.80;;;;;;5051891;28;20037;-42
2023/07/12 01:18:37;;;;;;;7.30;4.10;;;25.20;53.90;;;;;;5051873;28;20046;-44
2023/07/12 01:21:05;;;;;;;8.15;4.40;;;25.20;53.10;;;;;;5051793;28;20028;-45
2023/07/12 01:23:31;;;;;;;6.33;4.20;;;25.20;53.40;;;;;;5066384;28;20075;-47
2023/07/12 01:26:15;;;;;;;5.68;4.50;;;25.20;54.20;;;;;;5051717;28;20048;-44
2023/07/12 01:28:44;;;;;;;6.25;4.50;;;25.20;53.00;;;;;;5053825;28;20032;-43
2023/07/12 01:31:10;;;;;;;10.65;4.63;;;25.20;53.90;;;;;;5070688;28;20429;-42
2023/07/12 01:33:36;;;;;;;8.30;4.57;;;25.20;52.80;;;;;;5069240;28;20059;-44
2023/07/12 01:36:02;;;;;;;6.30;3.90;;;25.20;53.80;;;;;;5069388;28;20122;-42
2023/07/12 01:38:28;;;;;;;8.35;4.28;;;25.20;53.00;;;;;;5073222;28;20056;-42
2023/07/12 01:40:55;;;;;;;10.25;4.40;;;25.20;54.30;;;;;;5074314;28;20361;-42
2023/07/12 01:43:22;;;;;;;8.55;4.30;;;25.20;54.10;;;;;;5073890;28;20031;-42
2023/07/12 01:45:47;;;;;;;9.70;4.60;;;25.10;53.50;;;;;;5073812;28;20020;-43
2023/07/12 01:48:13;;;;;;;7.60;4.72;;;25.20;54.10;;;;;;5072646;28;20028;-48
2023/07/12 01:50:41;;;;;;;8.75;4.85;;;25.20;53.30;;;;;;5072931;28;20086;-42
2023/07/12 01:53:08;;;;;;;8.55;4.70;;;25.10;53.70;;;;;;5073815;28;20451;-43
2023/07/12 01:55:34;;;;;;;7.47;4.68;;;25.20;53.80;;;;;;5074021;28;20107;-42
2023/07/12 01:58:00;;;;;;;7.38;4.57;;;25.20;53.00;;;;;;5073858;28;20029;-45
2023/07/12 02:00:26;;;;;;;5.72;4.07;;;25.10;53.30;;;;;;5056109;28;20031;-42
2023/07/12 02:02:52;;;;;;;6.72;4.43;;;25.20;53.20;;;;;;5074068;28;20032;-42
2023/07/12 02:05:18;;;;;;;9.07;4.82;;;25.20;53.40;;;;;;5072390;28;20031;-42
2023/07/12 02:07:44;;;;;;;8.60;4.43;;;25.20;53.50;;;;;;5073763;28;20477;-42
2023/07/12 02:10:18;;;;;;;8.85;4.78;;;25.20;53.70;;;;;;5073777;28;20052;-45
2023/07/12 02:12:44;;;;;;;10.00;4.70;;;25.20;53.10;;;;;;5072401;28;20032;-43
2023/07/12 02:15:12;;;;;;;7.60;4.50;;;25.10;53.30;;;;;;5073249;28;20550;-42
2023/07/12 02:17:39;;;;;;;7.68;4.65;;;25.20;53.40;;;;;;5072326;28;20060;-43
2023/07/12 02:20:07;;;;;;;7.57;4.72;;;25.10;53.10;;;;;;5073550;28;20480;-42
2023/07/12 02:22:37;;;;;;;9.60;4.88;;;25.10;53.20;;;;;;5073669;28;20502;-42
2023/07/12 02:25:04;;;;;;;10.38;4.75;;;25.20;53.60;;;;;;5073213;28;20036;-43
2023/07/12 02:27:30;;;;;;;9.18;5.35;;;25.10;53.00;;;;;;5073217;28;20646;-46
2023/07/12 02:29:57;;;;;;;7.93;4.88;;;25.10;53.60;;;;;;5073286;28;20025;-42
2023/07/12 02:32:23;;;;;;;8.77;4.05;;;25.10;53.90;;;;;;5073298;28;20039;-45
2023/07/12 02:34:49;;;;;;;7.85;5.28;;;25.10;53.80;;;;;;5072998;28;20450;-45
2023/07/12 02:37:16;;;;;;;10.30;4.75;;;25.10;53.30;;;;;;5073158;28;20031;-45
2023/07/12 02:39:43;;;;;;;10.38;5.05;;;25.10;53.60;;;;;;5073168;28;20029;-45
2023/07/12 02:42:09;;;;;;;9.57;4.47;;;25.10;53.70;;;;;;5073169;28;20054;-45
2023/07/12 02:44:40;;;;;;;9.13;4.53;;;25.10;53.80;;;;;;5073143;28;20032;-42
2023/07/12 02:47:09;;;;;;;11.90;5.30;;;25.10;53.70;;;;;;5073009;28;20028;-44
2023/07/12 02:49:35;;;;;;;9.70;4.67;;;25.10;53.80;;;;;;5071703;28;20024;-44
2023/07/12 02:52:01;;;;;;;11.48;4.95;;;25.10;53.80;;;;;;5076561;28;20031;-44
2023/07/12 02:54:27;;;;;;;8.40;5.30;;;25.10;53.80;;;;;;5072691;28;20111;-43
2023/07/12 02:56:53;;;;;;;10.32;5.13;;;25.10;53.20;;;;;;5072923;28;20028;-42
2023/07/12 02:59:18;;;;;;;10.07;5.18;;;25.10;53.50;;;;;;5072760;28;20029;-42
2023/07/12 03:01:47;;;;;;;8.40;4.95;;;25.10;53.50;;;;;;5072796;28;20028;-44
2023/07/12 03:04:13;;;;;;;8.97;5.00;;;25.10;54.10;;;;;;5072675;28;20453;-43
2023/07/12 03:06:39;;;;;;;8.07;5.20;;;25.10;53.60;;;;;;5072496;28;20104;-42
2023/07/12 03:09:06;;;;;;;7.57;4.57;;;25.10;53.80;;;;;;5072481;28;20456;-42
2023/07/12 03:11:32;;;;;;;11.38;5.40;;;25.10;53.60;;;;;;5072480;28;20028;-42
2023/07/12 03:13:58;;;;;;;9.90;4.85;;;25.10;53.70;;;;;;5072159;28;20036;-42
2023/07/12 03:16:24;;;;;;;8.25;4.93;;;25.10;54.00;;;;;;5072368;28;20024;-42
2023/07/12 03:18:50;;;;;;;9.60;5.18;;;25.10;53.50;;;;;;5072405;28;20073;-43
2023/07/12 03:21:15;;;;;;;9.65;5.50;;;25.10;53.90;;;;;;5072356;28;20103;-42
2023/07/12 03:23:42;;;;;;;9.93;5.82;;;25.10;54.00;;;;;;5072078;28;20497;-42
2023/07/12 03:26:08;;;;;;;9.32;5.38;;;25.10;53.70;;;;;;5072140;28;20115;-42
2023/07/12 03:28:34;;;;;;;10.40;5.68;;;25.10;53.80;;;;;;5072213;28;20103;-42
2023/07/12 03:31:03;;;;;;;9.88;5.28;;;25.10;53.70;;;;;;5072098;28;20253;-43
2023/07/12 03:33:29;;;;;;;9.63;5.70;;;25.20;54.10;;;;;;5071657;28;20029;-42
2023/07/12 03:35:55;;;;;;;11.25;5.80;;;25.10;53.80;;;;;;5072000;28;20029;-45
2023/07/12 03:38:25;;;;;;;9.55;5.55;;;25.10;53.70;;;;;;5071782;28;20029;-47
2023/07/12 03:40:51;;;;;;;8.68;5.65;;;25.20;53.60;;;;;;5071999;28;20071;-43
2023/07/12 03:43:17;;;;;;;7.85;5.55;;;25.10;53.60;;;;;;5071614;28;20051;-43
2023/07/12 03:45:43;;;;;;;10.18;5.82;;;25.10;53.80;;;;;;5071958;28;20035;-44
2023/07/12 03:48:09;;;;;;;11.52;5.85;;;25.10;53.80;;;;;;5071834;28;20028;-46
2023/07/12 03:50:40;;;;;;;11.70;6.20;;;25.20;53.80;;;;;;5071897;28;20044;-42
2023/07/12 03:53:07;;;;;;;10.95;6.00;;;25.10;53.90;;;;;;5071457;28;20049;-45
2023/07/12 03:55:33;;;;;;;10.65;6.10;;;25.10;54.00;;;;;;5071686;28;20111;-44
2023/07/12 03:57:59;;;;;;;12.45;6.32;;;25.10;53.80;;;;;;5071594;28;20024;-48
2023/07/12 04:00:25;;;;;;;9.57;5.82;;;25.10;53.90;;;;;;5071307;28;20021;-45
2023/07/12 04:02:51;;;;;;;10.25;6.00;;;25.10;54.00;;;;;;5071511;28;20037;-43
2023/07/12 04:05:17;;;;;;;10.80;6.47;;;25.10;54.00;;;;;;5071469;28;20028;-43
2023/07/12 04:07:43;;;;;;;12.00;6.63;;;25.10;54.00;;;;;;5071549;28;20039;-46
2023/07/12 04:10:09;;;;;;;10.57;6.60;;;25.10;54.10;;;;;;5071501;28;20047;-42
2023/07/12 04:12:35;;;;;;;11.65;6.60;;;25.10;54.10;;;;;;5071880;28;20040;-42
2023/07/12 04:15:01;;;;;;;11.27;7.30;;;25.10;54.10;;;;;;5071281;28;20029;-43
2023/07/12 04:17:27;;;;;;;12.38;7.55;;;25.10;54.10;;;;;;5071387;28;20078;-46
2023/07/12 04:19:53;;;;;;;14.45;7.57;;;25.10;54.30;;;;;;5071339;28;20016;-46
2023/07/12 04:22:19;;;;;;;11.85;7.18;;;25.10;54.30;;;;;;5071436;28;20148;-44
2023/07/12 04:24:53;;;;;;;13.07;7.85;;;25.10;54.20;;;;;;5071135;28;20024;-43
2023/07/12 04:27:19;;;;;;;11.70;7.22;;;25.10;54.50;;;;;;5071441;28;20028;-42
2023/07/12 04:29:45;;;;;;;15.23;8.88;;;25.10;54.40;;;;;;5071453;28;20024;-42
2023/07/12 04:32:11;;;;;;;14.85;7.78;;;25.10;54.60;;;;;;5071260;28;20036;-42
2023/07/12 04:34:38;;;;;;;13.27;7.70;;;25.10;54.30;;;;;;5070952;28;20059;-42
2023/07/12 04:37:04;;;;;;;12.40;8.07;;;25.10;54.40;;;;;;5085895;22;20103;-52
2023/07/12 04:39:30;;;;;;;12.95;8.35;;;25.10;54.50;;;;;;5039181;28;20026;-52
2023/07/12 04:41:56;;;;;;;13.82;8.10;;;25.10;54.60;;;;;;5031369;28;20021;-53
2023/07/12 04:44:21;;;;;;;14.90;8.40;;;25.10;54.60;;;;;;5031076;28;20113;-52
2023/07/12 04:46:47;;;;;;;11.68;7.28;;;25.10;54.70;;;;;;5031250;28;20053;-52
2023/07/12 04:49:13;;;;;;;13.65;8.07;;;25.10;54.80;;;;;;5031299;28;20069;-49
2023/07/12 04:51:39;;;;;;;11.63;7.60;;;25.10;54.70;;;;;;5031189;28;20036;-53
2023/07/12 04:54:05;;;;;;;15.25;8.38;;;25.10;54.70;;;;;;5013185;28;20111;-52
2023/07/12 04:56:31;;;;;;;13.27;8.35;;;25.10;54.80;;;;;;5031128;28;20109;-53
2023/07/12 04:58:56;;;;;;;12.88;8.40;;;25.10;54.90;;;;;;5013608;28;20100;-54
2023/07/12 05:01:22;;;;;;;18.08;8.00;;;25.10;55.00;;;;;;5031242;28;20374;-52
2023/07/12 05:03:48;;;;;;;13.95;8.00;;;25.20;55.00;;;;;;5030983;28;20087;-52
2023/07/12 05:06:14;;;;;;;13.05;7.97;;;25.10;55.10;;;;;;5031198;28;20025;-55
2023/07/12 05:08:41;;;;;;;13.18;8.02;;;25.10;55.20;;;;;;5030978;28;20524;-54
2023/07/12 05:11:07;;;;;;;14.23;8.43;;;25.10;55.30;;;;;;5031089;28;20480;-53
2023/07/12 05:13:33;;;;;;;14.02;8.05;;;25.10;55.20;;;;;;5033354;28;20109;-53
2023/07/12 05:15:59;;;;;;;12.90;8.45;;;25.10;55.30;;;;;;5017120;28;20021;-53
2023/07/12 05:18:26;;;;;;;13.25;8.38;;;25.10;55.30;;;;;;5034694;28;20025;-50
2023/07/12 05:20:52;;;;;;;14.75;8.18;;;25.10;55.40;;;;;;5034744;28;20021;-53
2023/07/12 05:23:19;;;;;;;13.80;8.50;;;25.10;55.50;;;;;;5034367;28;20045;-51
2023/07/12 05:25:53;;;;;;;14.07;8.38;;;25.20;55.70;;;;;;5034724;28;20033;-53
2023/07/12 05:28:20;;;;;;;12.80;7.97;;;25.10;55.60;;;;;;5034463;28;20025;-51
2023/07/12 05:30:47;;;;;;;14.52;8.90;;;25.10;55.90;;;;;;5034424;28;20033;-52
2023/07/12 05:33:12;;;;;;;13.57;7.82;;;25.20;55.90;;;;;;5034405;28;20463;-49
2023/07/12 05:35:38;;;;;;;13.43;8.15;;;25.10;55.80;;;;;;5034420;28;20112;-51
2023/07/12 05:38:04;;;;;;;15.07;9.00;;;25.20;55.90;;;;;;5034184;28;20492;-52
2023/07/12 05:40:30;;;;;;;15.57;8.25;;;25.10;56.00;;;;;;5034468;28;20060;-52
2023/07/12 05:42:57;;;;;;;13.00;8.65;;;25.10;55.90;;;;;;5034047;28;20022;-53
2023/07/12 05:45:26;;;;;;;16.13;8.55;;;25.10;56.10;;;;;;5034317;28;20052;-51
2023/07/12 05:47:52;;;;;;;13.90;9.07;;;25.20;56.20;;;;;;5034120;28;20052;-51
2023/07/12 05:50:19;;;;;;;12.65;8.48;;;25.20;56.20;;;;;;5034270;28;20031;-53
2023/07/12 05:52:46;;;;;;;13.98;8.68;;;25.20;56.30;;;;;;5034127;28;20029;-53
2023/07/12 05:55:14;;;;;;;13.52;8.95;;;25.20;56.50;;;;;;5033698;28;20030;-50
2023/07/12 05:57:40;;;;;;;15.52;9.27;;;25.20;56.50;;;;;;5033937;28;20397;-52
2023/07/12 06:00:08;;;;;;;14.07;8.27;;;25.20;56.60;;;;;;5033928;28;20025;-50
2023/07/12 06:02:35;;;;;;;17.58;9.10;;;25.20;56.60;;;;;;5033878;28;20021;-53
2023/07/12 06:05:02;;;;;;;16.23;8.57;;;25.20;56.80;;;;;;5033622;28;20056;-50
2023/07/12 06:07:28;;;;;;;17.95;8.80;;;25.20;56.80;;;;;;5033840;28;20109;-52
2023/07/12 06:09:54;;;;;;;16.58;8.73;;;25.20;57.00;;;;;;5033870;28;20112;-52
2023/07/12 06:12:20;;;;;;;16.70;9.60;;;25.20;57.20;;;;;;5033746;28;20044;-52
2023/07/12 06:14:45;;;;;;;13.57;8.55;;;25.20;57.10;;;;;;5033396;28;20034;-51
2023/07/12 06:17:11;;;;;;;15.05;9.40;;;25.20;57.40;;;;;;5033640;28;20022;-53
2023/07/12 06:19:37;;;;;;;13.30;9.15;;;25.20;57.60;;;;;;5033663;28;20484;-49
2023/07/12 06:22:03;;;;;;;12.80;8.70;;;25.20;57.40;;;;;;5033506;28;20029;-48
2023/07/12 06:24:29;;;;;;;13.43;9.00;;;25.20;57.40;;;;;;5032804;28;20036;-52
2023/07/12 06:26:55;;;;;;;15.85;9.68;;;25.20;57.40;;;;;;5033380;28;20101;-53
2023/07/12 06:29:21;;;;;;;14.32;9.20;;;25.20;57.70;;;;;;5033457;28;20026;-49
2023/07/12 06:31:46;;;;;;;17.30;8.70;;;25.20;57.70;;;;;;5033307;28;20484;-49
2023/07/12 06:34:12;;;;;;;12.38;8.65;;;25.20;58.50;;;;;;5032987;28;20037;-51
2023/07/12 06:36:38;;;;;;;13.75;8.88;;;25.20;57.90;;;;;;5033081;28;20520;-53
2023/07/12 06:39:04;;;;;;;14.27;8.95;;;25.20;58.30;;;;;;5033154;28;20472;-47
2023/07/12 06:41:30;;;;;;;15.45;9.25;;;25.20;57.90;;;;;;5033161;28;20048;-53
2023/07/12 06:43:56;;;;;;;14.75;8.82;;;25.20;58.40;;;;;;5032793;28;20056;-53
2023/07/12 06:46:22;;;;;;;31.20;9.10;;;25.20;58.60;;;;;;5032932;28;20488;-53
2023/07/12 06:48:48;;;;;;;12.10;8.50;;;25.30;59.30;;;;;;5033179;28;20042;-49
2023/07/12 06:51:14;;;;;;;17.63;8.45;;;25.30;59.50;;;;;;5033195;28;20026;-48
2023/07/12 06:53:40;;;;;;;18.58;8.75;;;25.30;59.50;;;;;;5032514;28;20148;-47
2023/07/12 06:56:06;;;;;;;15.52;8.52;;;25.30;60.20;;;;;;5032906;28;20037;-49
2023/07/12 06:58:33;;;;;;;13.93;8.35;;;25.30;60.60;;;;;;5032799;28;20026;-51
2023/07/12 07:00:59;;;;;;;13.45;7.63;;;25.40;61.20;;;;;;5032882;28;20232;-48
2023/07/12 07:03:26;;;;;;;13.77;8.15;;;25.40;60.80;;;;;;5018320;28;20025;-54
2023/07/12 07:05:51;;;;;;;13.45;7.55;;;25.40;60.90;;;;;;5023891;28;20051;-51
2023/07/12 07:08:19;;;;;;;14.13;7.45;;;25.40;61.20;;;;;;5029836;28;20021;-53
2023/07/12 07:10:50;;;;;;;14.10;7.28;;;25.50;61.20;;;;;;5030270;28;20153;-53
2023/07/12 07:13:17;;;;;;;20.70;7.65;;;25.50;61.10;;;;;;5030311;28;20037;-46
2023/07/12 07:15:45;;;;;;;15.00;7.80;;;25.50;61.20;;;;;;5012412;28;20040;-51
2023/07/12 07:18:12;;;;;;;19.58;7.35;;;25.50;61.70;;;;;;5029554;28;20408;-51
2023/07/12 07:20:40;;;;;;;9.75;7.10;;;25.50;61.70;;;;;;5030126;28;20032;-52
2023/07/12 07:23:06;;;;;;;11.05;7.40;;;25.50;61.30;;;;;;5029640;28;20021;-46
2023/07/12 07:25:31;;;;;;;14.60;7.82;;;25.50;61.60;;;;;;5030148;28;20044;-47
2023/07/12 07:27:57;;;;;;;12.95;7.88;;;25.50;61.40;;;;;;5029675;28;20052;-51
2023/07/12 07:30:23;;;;;;;14.40;7.43;;;25.50;61.40;;;;;;5030084;28;20071;-52
2023/07/12 07:32:49;;;;;;;16.13;8.32;;;25.50;61.30;;;;;;5029646;28;20033;-48
2023/07/12 07:35:16;;;;;;;13.23;8.05;;;25.50;61.60;;;;;;5028745;28;20476;-54
2023/07/12 07:37:42;;;;;;;17.60;8.40;;;25.50;62.00;;;;;;5029384;28;20036;-51
2023/07/12 07:40:09;;;;;;;15.45;8.57;;;25.60;62.50;;;;;;5021734;28;20481;-52
2023/07/12 07:42:35;;;;;;;17.35;8.48;;;25.70;63.10;;;;;;5029419;28;20104;-48
2023/07/12 07:45:01;;;;;;;16.77;8.95;;;25.90;62.20;;;;;;5028550;28;20113;-47
2023/07/12 07:47:27;;;;;;;16.50;10.32;;;26.10;62.60;;;;;;5029560;28;20119;-47
2023/07/12 07:49:52;;;;;;;16.83;8.85;;;26.10;61.60;;;;;;5029393;28;20564;-48
2023/07/12 07:52:18;;;;;;;19.13;10.02;;;25.90;60.90;;;;;;5029642;28;20081;-48
2023/07/12 07:54:44;;;;;;;18.50;8.98;;;25.70;61.00;;;;;;5029332;28;20542;-48
2023/07/12 07:57:10;;;;;;;12.18;8.88;;;25.70;60.60;;;;;;5029503;28;20026;-47
2023/07/12 07:59:36;;;;;;;22.83;9.13;;;25.70;60.40;;;;;;5029230;28;20036;-49
2023/07/12 08:02:02;;;;;;;14.20;8.15;;;25.60;60.00;;;;;;5028672;28;20408;-52
2023/07/12 08:04:30;;;;;;;15.63;7.90;;;25.50;60.30;;;;;;5029344;28;20036;-54
2023/07/12 08:06:59;;;;;;;17.70;9.07;;;25.50;60.00;;;;;;5029312;28;20038;-55
2023/07/12 08:09:24;;;;;;;13.93;7.93;;;25.50;60.00;;;;;;5029200;28;20033;-52
2023/07/12 08:11:50;;;;;;;14.23;7.13;;;25.50;60.50;;;;;;5029550;28;20083;-54
2023/07/12 08:14:18;;;;;;;15.82;7.65;;;25.50;59.70;;;;;;5029196;28;20275;-51
2023/07/12 08:16:43;;;;;;;12.18;6.80;;;25.50;59.50;;;;;;5027038;28;20026;-52
2023/07/12 08:19:09;;;;;;;13.40;6.45;;;25.40;59.10;;;;;;5029168;28;20103;-49
2023/07/12 08:21:35;;;;;;;16.30;6.43;;;25.40;59.00;;;;;;5029493;28;20029;-49
2023/07/12 08:24:01;;;;;;;10.25;5.78;;;25.40;58.80;;;;;;5028457;28;20026;-51
2023/07/12 08:26:26;;;;;;;10.40;5.70;;;25.40;58.50;;;;;;5029324;28;20033;-53
2023/07/12 08:28:52;;;;;;;10.40;5.50;;;25.30;58.60;;;;;;5028979;28;20366;-51
2023/07/12 08:31:18;;;;;;;8.30;4.88;;;25.30;58.20;;;;;;5029257;28;20397;-49
2023/07/12 08:33:44;;;;;;;14.48;4.78;;;25.30;57.90;;;;;;5028335;28;20033;-52
2023/07/12 08:36:11;;;;;;;9.77;5.00;;;25.40;58.30;;;;;;5029217;28;20024;-50
2023/07/12 08:38:37;;;;;;;13.70;4.72;;;25.30;58.00;;;;;;5028980;28;20049;-51
2023/07/12 08:41:13;;;;;;;9.48;4.78;;;25.30;58.10;;;;;;5028998;28;20061;-48
2023/07/12 08:43:39;;;;;;;10.05;4.40;;;25.30;58.30;;;;;;5028836;28;20061;-52
2023/07/12 08:46:26;;;;;;;10.32;4.18;;;25.20;58.20;;;;;;5029103;28;20061;-54
2023/07/12 08:49:00;;;;;;;5.80;3.63;;;25.30;58.40;;;;;;5032803;28;20038;-50
2023/07/12 08:51:31;;;;;;;10.40;4.07;;;25.30;58.40;;;;;;5032993;28;20029;-47
2023/07/12 08:53:57;;;;;;;14.85;4.13;;;25.30;58.60;;;;;;5032182;28;20465;-47
2023/07/12 08:56:24;;;;;;;10.43;4.05;;;25.30;58.70;;;;;;5033227;28;20025;-49
2023/07/12 08:58:53;;;;;;;6.75;3.47;;;25.30;58.90;;;;;;5032499;28;20439;-50
2023/07/12 09:01:30;;;;;;;7.47;3.80;;;25.30;59.20;;;;;;5032803;28;20022;-49
2023/07/12 09:03:58;;;;;;;7.90;3.53;;;25.30;59.30;;;;;;5031997;28;20025;-48
2023/07/12 09:06:24;;;;;;;9.50;3.90;;;25.20;58.90;;;;;;5032532;28;20063;-48
2023/07/12 09:08:53;;;;;;;6.57;3.55;;;25.20;59.20;;;;;;5032277;28;20104;-47
2023/07/12 09:11:32;;;;;;;6.25;3.75;;;25.30;59.30;;;;;;5032517;28;20429;-47
2023/07/12 09:13:58;;;;;;;7.80;3.20;;;25.30;59.30;;;;;;5031990;28;20380;-47
2023/07/12 09:16:32;;;;;;;8.63;3.55;;;25.30;59.40;;;;;;5029007;28;20025;-48
2023/07/12 09:19:01;;;;;;;9.48;3.67;;;25.40;59.30;;;;;;5031215;28;20468;-51
2023/07/12 09:21:36;;;;;;;9.65;3.95;;;25.40;59.50;;;;;;5032323;28;20155;-51
2023/07/12 09:24:09;;;;;;;13.10;3.90;;;25.50;59.50;;;;;;5031768;28;20044;-53
2023/07/12 09:26:36;;;;;;;7.00;3.80;;;25.40;59.60;;;;;;5032432;28;20262;-52
2023/07/12 09:29:18;;;;;;;5.70;3.42;;;25.40;59.60;;;;;;5032063;28;20462;-51
2023/07/12 09:31:45;;;;;;;5.18;3.53;;;25.40;59.70;;;;;;5032100;28;20388;-55
2023/07/12 09:34:24;;;;;;;5.25;3.50;;;25.50;60.00;;;;;;5031755;28;20104;-52
2023/07/12 09:36:57;;;;;;;5.47;3.22;;;25.50;59.80;;;;;;5031312;28;20025;-47
2023/07/12 09:39:25;;;;;;;7.18;3.25;;;25.40;60.10;;;;;;5032070;28;20022;-51
2023/07/12 09:41:57;;;;;;;11.43;3.40;;;25.40;60.20;;;;;;5032134;28;20493;-48
2023/07/12 09:44:24;;;;;;;6.30;3.10;;;25.40;60.20;;;;;;5031569;28;20567;-51
2023/07/12 09:47:28;;;;;;;6.03;3.10;;;25.40;60.00;;;;;;5031676;28;20396;-53
2023/07/12 09:50:10;;;;;;;7.40;3.35;;;25.30;60.00;;;;;;5017200;28;20551;-53
2023/07/12 09:52:50;;;;;;;7.93;3.38;;;25.40;60.30;;;;;;5032097;28;20037;-50
2023/07/12 09:55:24;;;;;;;6.47;3.03;;;25.40;60.40;;;;;;5024397;28;20063;-49
2023/07/12 09:58:02;;;;;;;6.93;3.10;;;25.40;60.40;;;;;;5030891;28;20037;-49
2023/07/12 10:00:58;;;;;;;10.18;2.97;;;25.40;60.70;;;;;;5031600;28;20488;-47
2023/07/12 10:03:32;;;;;;;8.05;3.55;;;25.40;60.80;;;;;;5013621;28;20037;-50
2023/07/12 10:06:33;;;;;;;8.77;3.40;;;25.50;60.90;;;;;;5031216;28;20423;-48
2023/07/12 10:09:22;;;;;;;10.95;3.92;;;25.50;60.90;;;;;;4996582;28;20062;-51
2023/07/12 10:12:01;;;;;;;7.65;3.30;;;25.50;61.50;;;;;;5013857;28;20029;-48
2023/07/12 10:14:33;;;;;;;9.55;3.17;;;25.50;61.10;;;;;;5031073;28;20492;-49
2023/07/12 10:16:59;;;;;;;7.20;3.30;;;25.50;61.00;;;;;;5031313;28;20049;-50
2023/07/12 10:19:31;;;;;;;6.13;3.08;;;25.50;60.90;;;;;;5031806;28;20036;-51
2023/07/12 10:22:01;;;;;;;6.03;2.58;;;25.60;61.00;;;;;;5031384;28;20025;-47
2023/07/12 10:24:35;;;;;;;7.78;2.50;;;25.60;60.90;;;;;;5030944;28;20055;-48
2023/07/12 10:27:04;;;;;;;4.20;2.65;;;25.60;60.80;;;;;;5030955;28;20037;-50
2023/07/12 10:29:52;;;;;;;4.80;2.67;;;25.50;60.80;;;;;;5031233;28;20037;-49
2023/07/12 10:32:25;;;;;;;6.00;2.97;;;25.60;60.80;;;;;;5031433;28;20041;-54
2023/07/12 10:35:05;;;;;;;6.43;2.92;;;25.70;60.90;;;;;;5031129;28;20442;-53
2023/07/12 10:37:35;;;;;;;;;;;25.60;60.70;;;;;;5031513;28;20041;-54
2023/07/12 10:40:01;;;;;;;4.70;2.80;;;25.60;60.70;;;;;;5030863;28;19960;-51
2023/07/12 10:42:49;;;;;;;5.55;2.60;;;25.50;60.60;;;;;;5030930;28;20025;-51
2023/07/12 10:45:24;;;;;;;7.82;3.00;;;25.50;60.90;;;;;;5023523;28;20075;-50
2023/07/12 10:47:51;;;;;;;5.70;2.40;;;25.60;60.60;;;;;;5030910;28;20065;-53
2023/07/12 10:50:24;;;;;;;5.43;2.22;;;25.60;60.10;;;;;;5030757;28;20041;-52
2023/07/12 10:52:55;;;;;;;4.53;2.50;;;25.50;59.10;;;;;;5030905;28;20453;-54
2023/07/12 10:55:36;;;;;;;5.95;2.38;;;25.50;59.40;;;;;;5030515;28;20056;-52
2023/07/12 10:58:14;;;;;;;4.72;2.13;;;25.50;59.00;;;;;;5030308;28;20029;-53
2023/07/12 11:00:58;;;;;;;7.13;2.30;;;25.60;59.70;;;;;;5030539;28;20025;-50
2023/07/12 11:03:45;;;;;;;6.75;2.80;;;25.60;59.00;;;;;;5023855;28;20535;-54
2023/07/12 11:06:22;;;;;;;8.40;2.35;;;25.70;59.00;;;;;;5030395;28;20510;-53
2023/07/12 11:09:08;;;;;;;6.03;2.65;;;25.70;59.00;;;;;;5030429;28;20029;-51
2023/07/12 11:11:44;;;;;;;7.07;2.30;;;25.70;59.00;;;;;;5030428;28;20029;-54
2023/07/12 11:14:16;;;;;;;3.70;2.38;;;25.70;58.70;;;;;;5022283;28;20492;-50
2023/07/12 11:16:51;;;;;;;3.42;2.20;;;25.70;58.60;;;;;;5029842;28;20037;-52
2023/07/12 11:19:32;;;;;;;5.13;2.20;;;25.70;58.50;;;;;;5030267;28;20041;-50
2023/07/12 11:22:04;;;;;;;6.80;2.30;;;25.80;58.20;;;;;;5030203;28;20035;-54
2023/07/12 11:24:38;;;;;;;3.88;2.10;;;25.80;57.90;;;;;;5029590;28;20037;-50
2023/07/12 11:27:09;;;;;;;3.67;2.13;;;25.70;57.40;;;;;;5029801;28;20033;-53
2023/07/12 11:29:44;;;;;;;4.88;2.47;;;25.80;57.00;;;;;;5030057;28;20021;-51
2023/07/12 11:32:25;;;;;;;3.17;2.30;;;25.70;57.30;;;;;;5030127;28;20021;-49
2023/07/12 11:35:01;;;;;;;5.97;2.22;;;25.70;57.50;;;;;;5029565;28;20083;-54
2023/07/12 11:37:36;;;;;;;3.38;2.00;;;25.70;56.60;;;;;;5029649;28;20056;-52
2023/07/12 11:40:11;;;;;;;3.90;2.00;;;25.70;56.70;;;;;;5029808;28;20412;-52
2023/07/12 11:42:37;;;;;;;3.47;2.00;;;25.70;56.50;;;;;;5012241;28;20068;-49
2023/07/12 11:45:06;;;;;;;3.45;1.95;;;25.70;56.50;;;;;;5011791;28;20457;-53
2023/07/12 11:47:32;;;;;;;4.15;2.00;;;25.70;56.50;;;;;;5011826;28;20034;-52
2023/07/12 11:50:00;;;;;;;3.75;2.10;;;25.70;56.50;;;;;;5029688;28;20663;-53
2023/07/12 11:52:27;;;;;;;5.35;1.88;;;25.70;56.40;;;;;;5029715;28;20030;-52
2023/07/12 11:54:54;;;;;;;3.42;2.03;;;25.70;56.90;;;;;;5029368;28;20052;-51
2023/07/12 11:57:20;;;;;;;4.43;2.00;;;25.70;56.60;;;;;;5029524;28;20505;-47
2023/07/12 11:59:49;;;;;;;8.10;2.40;;;25.80;57.20;;;;;;5028690;28;20452;-48
2023/07/12 12:02:19;;;;;;;9.32;2.30;;;25.80;57.90;;;;;;5029658;28;20029;-48
2023/07/12 12:04:48;;;;;;;4.60;2.35;;;25.80;58.00;;;;;;5029213;28;20029;-49
2023/07/12 12:07:37;;;;;;;9.35;1.98;;;25.90;58.50;;;;;;5029302;28;20508;-48
2023/07/12 12:10:05;;;;;;;4.72;1.92;;;25.90;58.80;;;;;;5029563;28;20663;-51
2023/07/12 12:12:32;;;;;;;5.50;1.95;;;25.90;58.80;;;;;;5011732;28;20033;-51
2023/07/12 12:14:59;;;;;;;9.35;5.65;;;26.00;58.10;;;;;;5028645;28;20025;-51
2023/07/12 12:17:30;;;;;;;10.48;7.53;;;26.00;58.40;;;;;;5029458;28;20346;-47
2023/07/12 12:20:14;;;;;;;14.40;9.32;;;26.00;58.30;;;;;;5029128;28;20602;-52
2023/07/12 12:22:42;;;;;;;12.38;7.80;;;26.00;58.20;;;;;;5028816;28;20032;-50
2023/07/12 12:25:17;;;;;;;10.80;6.13;;;26.00;58.50;;;;;;5029024;28;20025;-52
2023/07/12 12:27:45;;;;;;;10.75;6.63;;;26.00;59.00;;;;;;5011600;28;20034;-50
2023/07/12 12:30:28;;;;;;;8.63;5.35;;;26.10;59.90;;;;;;5029326;28;20030;-47
2023/07/12 12:33:00;;;;;;;14.32;7.07;;;26.00;60.00;;;;;;5028934;28;20029;-49
2023/07/12 12:35:26;;;;;;;11.07;6.40;;;26.00;59.90;;;;;;5029589;28;20072;-51
2023/07/12 12:37:57;;;;;;;7.18;5.75;;;26.00;59.80;;;;;;5028815;28;20044;-47
2023/07/12 12:40:23;;;;;;;8.13;5.00;;;25.90;59.90;;;;;;5029227;28;20489;-49
2023/07/12 12:43:01;;;;;;;9.15;5.40;;;26.00;59.90;;;;;;5028874;28;20041;-49
2023/07/12 12:45:35;;;;;;;8.38;5.68;;;26.00;59.60;;;;;;5028585;28;20622;-49
2023/07/12 12:48:01;;;;;;;10.35;5.53;;;25.90;60.00;;;;;;5029010;28;20450;-49
2023/07/12 12:50:26;;;;;;;10.23;5.32;;;25.90;60.10;;;;;;5029000;28;20116;-51
2023/07/12 12:53:00;;;;;;;11.32;5.10;;;26.00;59.60;;;;;;5028895;28;20061;-47